Terminal Aerodrome Forecast
Issued by NWS

Home | Current Version | Previous Version | Text Only | Print | Product List | Glossary On
Versions: 1 2 3 4 5 6 7 8 9 10 11 12 13 14
000
FTUS43 KDVN 241120
TAFBRL
TAF
KBRL 241120Z 2412/2512 14009KT P6SM -SHRA BKN035
     FM241700 16011KT 6SM BR OVC020 PROB30 2422/2504 3SM -TSRA
      OVC015CB
     FM250400 20010KT 5SM RA BR OVC015=

USA.gov is the U.S. government's official web portal to all federal, state and local government web resources and services.